createdAt,value
2023-05-19T00:00:01.200Z,83.50
2023-05-19T00:02:34.173Z,83.90
2023-05-19T00:05:02.345Z,83.80
2023-05-19T00:07:31.517Z,83.90
2023-05-19T00:09:58.886Z,83.90
2023-05-19T00:12:26.558Z,84.00
2023-05-19T00:15:00.144Z,84.20
2023-05-19T00:17:30.410Z,84.30
2023-05-19T00:19:58.085Z,84.40
2023-05-19T00:22:26.119Z,84.60
2023-05-19T00:24:53.200Z,84.60
2023-05-19T00:27:20.472Z,84.50
2023-05-19T00:29:47.859Z,84.30
2023-05-19T00:32:15.955Z,84.50
2023-05-19T00:34:43.203Z,84.90
2023-05-19T00:37:10.265Z,84.70
2023-05-19T00:39:37.398Z,84.20
2023-05-19T00:42:06.063Z,84.40
2023-05-19T00:44:35.928Z,84.20
2023-05-19T00:47:05.720Z,84.30
2023-05-19T00:49:37.064Z,84.00
2023-05-19T00:52:04.597Z,83.90
2023-05-19T00:54:31.710Z,83.70
2023-05-19T00:56:59.336Z,83.70
2023-05-19T00:59:26.669Z,83.50
2023-05-19T01:01:53.715Z,83.80
2023-05-19T01:04:21.956Z,84.00
2023-05-19T01:06:58.120Z,84.00
2023-05-19T01:09:25.179Z,84.00
2023-05-19T01:11:52.361Z,84.30
2023-05-19T01:14:19.669Z,84.40
2023-05-19T01:16:51.894Z,84.40
2023-05-19T01:19:31.022Z,84.40
2023-05-19T01:22:16.567Z,84.30
2023-05-19T01:25:11.493Z,84.00
2023-05-19T01:28:00.333Z,84.00
2023-05-19T01:30:29.239Z,84.00
2023-05-19T01:33:01.209Z,84.10
2023-05-19T01:35:28.530Z,84.10
2023-05-19T01:37:57.938Z,84.20
2023-05-19T01:40:25.821Z,84.20
2023-05-19T01:42:57.886Z,84.70
2023-05-19T01:45:26.230Z,84.90
2023-05-19T01:47:57.815Z,84.90
2023-05-19T01:50:25.020Z,85.10
2023-05-19T01:52:52.186Z,85.40
2023-05-19T01:55:19.442Z,85.60
2023-05-19T01:58:02.077Z,85.60
2023-05-19T02:00:51.894Z,85.90
2023-05-19T02:03:26.684Z,86.20
2023-05-19T02:06:03.029Z,86.30
2023-05-19T02:08:30.090Z,86.60
2023-05-19T02:11:27.667Z,86.60
2023-05-19T02:13:56.415Z,86.50
2023-05-19T02:16:26.997Z,86.60
2023-05-19T02:18:54.241Z,86.60
2023-05-19T02:21:21.320Z,86.20
2023-05-19T02:23:49.190Z,86.30
2023-05-19T02:26:16.241Z,86.50
2023-05-19T02:28:43.253Z,86.70
2023-05-19T02:31:10.351Z,86.60
2023-05-19T02:33:37.712Z,86.60
2023-05-19T02:36:05.613Z,86.90
2023-05-19T02:38:34.498Z,87.30
2023-05-19T02:41:01.815Z,87.50
2023-05-19T02:43:31.852Z,87.40
2023-05-19T02:45:58.962Z,87.20
2023-05-19T02:48:26.437Z,87.10
2023-05-19T02:50:53.506Z,86.70
2023-05-19T02:53:20.499Z,86.30
2023-05-19T02:55:47.629Z,86.20
2023-05-19T02:58:14.781Z,86.00
2023-05-19T03:00:41.992Z,85.70
2023-05-19T03:03:10.490Z,85.80
2023-05-19T03:05:37.703Z,85.80
2023-05-19T03:08:05.020Z,85.60
2023-05-19T03:10:32.325Z,85.40
2023-05-19T03:12:59.772Z,85.70
2023-05-19T03:15:26.842Z,85.70
2023-05-19T03:17:56.638Z,85.70
2023-05-19T03:20:24.667Z,85.60
2023-05-19T03:22:51.845Z,85.50
2023-05-19T03:25:18.950Z,85.70
2023-05-19T03:27:45.973Z,85.60
2023-05-19T03:30:13.781Z,85.60
2023-05-19T03:32:41.060Z,85.50
2023-05-19T03:35:08.478Z,85.60
2023-05-19T03:37:35.785Z,85.90
2023-05-19T03:40:02.856Z,86.00
2023-05-19T03:42:30.163Z,86.00
2023-05-19T03:44:57.285Z,85.70
2023-05-19T03:47:24.417Z,85.30
2023-05-19T03:49:51.560Z,85.30
2023-05-19T03:52:18.681Z,85.50
2023-05-19T03:54:46.003Z,86.00
2023-05-19T03:57:13.904Z,86.00
2023-05-19T03:59:41.600Z,86.20
2023-05-19T04:02:14.057Z,86.50
2023-05-19T04:04:41.557Z,86.40
2023-05-19T04:07:08.811Z,86.70
2023-05-19T04:09:36.264Z,86.60
2023-05-19T04:12:03.385Z,86.20
2023-05-19T04:14:30.437Z,86.10
2023-05-19T04:16:57.652Z,85.70
2023-05-19T04:19:28.170Z,85.50
2023-05-19T04:21:55.480Z,85.40
2023-05-19T04:24:22.568Z,85.20
2023-05-19T04:26:49.613Z,85.30
2023-05-19T04:29:18.516Z,85.30
2023-05-19T04:31:46.122Z,85.20
2023-05-19T04:34:13.235Z,85.10
2023-05-19T04:36:40.648Z,85.00
2023-05-19T04:39:10.213Z,84.40
2023-05-19T04:41:40.630Z,83.90
2023-05-19T04:44:24.194Z,83.80
2023-05-19T04:46:54.574Z,83.70
2023-05-19T04:49:21.866Z,83.50
2023-05-19T04:51:53.280Z,83.50
2023-05-19T04:54:22.014Z,83.80
2023-05-19T04:56:49.073Z,84.10
2023-05-19T04:59:16.112Z,84.10
2023-05-19T05:01:43.544Z,83.90
2023-05-19T05:04:10.804Z,84.10
2023-05-19T05:06:40.658Z,83.70
2023-05-19T05:09:12.444Z,83.30
2023-05-19T05:11:40.765Z,83.10
2023-05-19T05:14:09.644Z,82.80
2023-05-19T05:16:37.425Z,82.80
2023-05-19T05:19:04.891Z,82.60
2023-05-19T05:21:33.111Z,82.50
2023-05-19T05:24:00.506Z,82.50
2023-05-19T05:26:30.385Z,81.70
2023-05-19T05:28:57.636Z,81.60
2023-05-19T05:31:24.820Z,82.20
2023-05-19T05:33:52.103Z,81.40
2023-05-19T05:36:19.333Z,81.00
2023-05-19T05:38:46.552Z,80.50
2023-05-19T05:41:13.610Z,80.10
2023-05-19T05:43:40.928Z,79.80
2023-05-19T05:46:08.083Z,79.40
2023-05-19T05:48:35.563Z,79.30
2023-05-19T05:51:03.034Z,79.10
2023-05-19T05:53:31.232Z,78.40
2023-05-19T05:55:58.732Z,78.00
2023-05-19T05:58:26.076Z,77.70
2023-05-19T06:00:57.277Z,77.20
2023-05-19T06:03:24.837Z,76.50
2023-05-19T06:05:53.259Z,75.40
2023-05-19T06:08:20.529Z,75.10
2023-05-19T06:10:47.735Z,74.60
2023-05-19T06:13:18.123Z,74.70
2023-05-19T06:15:45.369Z,74.50
2023-05-19T06:18:12.572Z,74.10
2023-05-19T06:20:39.711Z,73.90
2023-05-19T06:23:06.975Z,73.90
2023-05-19T06:25:36.903Z,73.80
2023-05-19T06:28:04.152Z,74.30
2023-05-19T06:30:31.697Z,74.10
2023-05-19T06:32:59.119Z,73.60
2023-05-19T06:35:26.234Z,73.40
2023-05-19T06:37:54.346Z,73.00
2023-05-19T06:40:22.539Z,72.50
2023-05-19T06:42:49.637Z,72.80
2023-05-19T06:45:17.002Z,73.20
2023-05-19T06:47:45.254Z,72.90
2023-05-19T06:50:13.457Z,72.90
2023-05-19T06:52:41.355Z,73.10
2023-05-19T06:55:08.822Z,72.80
2023-05-19T06:57:36.347Z,72.30
2023-05-19T07:00:04.496Z,71.80
2023-05-19T07:02:31.783Z,71.50
2023-05-19T07:04:59.435Z,71.50
2023-05-19T07:07:27.410Z,71.70
2023-05-19T07:09:54.972Z,71.60
2023-05-19T07:12:22.143Z,71.50
2023-05-19T07:14:49.460Z,71.00
2023-05-19T07:17:16.738Z,70.80
2023-05-19T07:19:44.278Z,71.10
2023-05-19T07:22:11.785Z,70.50
2023-05-19T07:24:38.851Z,69.80
2023-05-19T07:27:06.187Z,70.00
2023-05-19T07:29:33.391Z,70.20
2023-05-19T07:32:00.663Z,70.20
2023-05-19T07:34:27.937Z,70.30
2023-05-19T07:36:55.121Z,70.70
2023-05-19T07:39:25.268Z,71.30
2023-05-19T07:41:55.833Z,71.30
2023-05-19T07:44:22.831Z,71.90
2023-05-19T07:46:50.099Z,72.30
2023-05-19T07:49:17.161Z,72.20
2023-05-19T07:51:45.161Z,72.60
2023-05-19T07:54:12.426Z,72.50
2023-05-19T07:56:39.752Z,72.30
2023-05-19T07:59:08.191Z,72.30
2023-05-19T08:01:35.475Z,72.20
2023-05-19T08:04:06.168Z,72.10
2023-05-19T08:06:33.408Z,71.90
2023-05-19T08:09:00.515Z,72.10
2023-05-19T08:11:27.729Z,72.30
2023-05-19T08:13:54.889Z,72.30
2023-05-19T08:16:22.149Z,72.80
2023-05-19T08:18:49.347Z,73.00
2023-05-19T08:21:16.879Z,73.20
2023-05-19T08:23:44.101Z,73.30
2023-05-19T08:26:11.306Z,73.30
2023-05-19T08:28:40.705Z,73.30
2023-05-19T08:31:07.827Z,73.30
2023-05-19T08:33:34.956Z,73.30
2023-05-19T08:36:02.131Z,74.00
2023-05-19T08:38:29.184Z,73.70
2023-05-19T08:40:58.241Z,74.20
2023-05-19T08:43:25.408Z,74.90
2023-05-19T08:45:54.208Z,74.90
2023-05-19T08:48:21.749Z,74.60
2023-05-19T08:51:25.066Z,74.00
2023-05-19T08:53:53.176Z,73.10
2023-05-19T08:56:26.949Z,73.40
2023-05-19T08:58:54.144Z,73.70
2023-05-19T09:01:21.394Z,73.60
2023-05-19T09:03:50.205Z,73.50
2023-05-19T09:06:17.901Z,73.60
2023-05-19T09:08:44.978Z,74.00
2023-05-19T09:11:12.467Z,74.20
2023-05-19T09:13:39.625Z,73.80
2023-05-19T09:16:07.117Z,73.40
2023-05-19T09:18:34.375Z,72.90
2023-05-19T09:21:03.203Z,72.90
2023-05-19T09:23:33.877Z,72.50
2023-05-19T09:26:05.020Z,72.20
2023-05-19T09:28:33.463Z,72.10
2023-05-19T09:31:04.497Z,71.60
2023-05-19T09:33:33.765Z,71.80
2023-05-19T09:36:03.777Z,71.50
2023-05-19T09:38:30.994Z,70.80
2023-05-19T09:40:59.175Z,70.20
2023-05-19T09:43:33.816Z,70.00
2023-05-19T09:46:04.087Z,69.70
2023-05-19T09:48:31.289Z,69.00
2023-05-19T09:51:02.110Z,67.70
2023-05-19T09:53:32.759Z,67.40
2023-05-19T09:56:02.192Z,68.80
2023-05-19T09:58:35.595Z,67.70
2023-05-19T10:01:03.851Z,67.40
2023-05-19T10:03:32.760Z,66.00
2023-05-19T10:06:04.303Z,65.10
2023-05-19T10:08:32.039Z,65.30
2023-05-19T10:10:59.207Z,66.20
2023-05-19T10:13:26.806Z,66.30
2023-05-19T10:15:59.409Z,66.30
2023-05-19T10:18:30.376Z,66.70
2023-05-19T10:20:58.264Z,67.60
2023-05-19T10:23:25.984Z,68.40
2023-05-19T10:25:54.282Z,69.00
2023-05-19T10:28:23.732Z,69.80
2023-05-19T10:30:51.461Z,70.20
2023-05-19T10:33:21.276Z,69.90
2023-05-19T10:36:23.382Z,70.60
2023-05-19T10:39:01.259Z,71.50
2023-05-19T10:42:07.687Z,72.40
2023-05-19T10:45:04.786Z,73.10
2023-05-19T10:47:33.313Z,73.90
2023-05-19T10:50:04.822Z,74.10
2023-05-19T10:52:33.428Z,74.50
2023-05-19T10:55:02.156Z,74.70
2023-05-19T10:57:32.089Z,74.20
2023-05-19T11:00:10.797Z,73.30
2023-05-19T11:02:45.232Z,71.70
2023-05-19T11:05:18.455Z,70.10
2023-05-19T11:07:56.432Z,68.10
2023-05-19T11:10:24.116Z,64.70
2023-05-19T11:12:52.231Z,64.00
2023-05-19T11:15:19.464Z,62.10
2023-05-19T11:17:49.114Z,61.80
2023-05-19T11:20:26.590Z,62.00
2023-05-19T11:23:09.450Z,61.50
2023-05-19T11:25:50.456Z,60.60
2023-05-19T11:28:26.122Z,59.20
2023-05-19T11:30:57.590Z,58.80
2023-05-19T11:33:27.711Z,57.80
2023-05-19T11:35:58.673Z,56.90
2023-05-19T11:38:26.994Z,57.40
2023-05-19T11:40:54.333Z,56.90
2023-05-19T11:43:25.180Z,56.70
2023-05-19T11:45:54.311Z,56.90
2023-05-19T11:48:22.471Z,56.90
2023-05-19T11:50:50.048Z,55.70
2023-05-19T11:53:17.380Z,55.80
2023-05-19T11:55:48.074Z,57.20
2023-05-19T11:58:16.239Z,56.90
2023-05-19T12:00:46.254Z,55.20
2023-05-19T12:03:13.881Z,55.50
2023-05-19T12:05:48.235Z,55.70
2023-05-19T12:08:17.937Z,55.20
2023-05-19T12:10:45.630Z,55.40
2023-05-19T12:13:12.780Z,54.60
2023-05-19T12:15:39.902Z,52.70
2023-05-19T12:18:07.697Z,53.40
2023-05-19T12:20:37.942Z,52.60
2023-05-19T12:23:05.556Z,51.80
2023-05-19T12:25:33.077Z,51.00
2023-05-19T12:28:05.206Z,50.90
2023-05-19T12:30:33.622Z,51.40
2023-05-19T12:33:01.989Z,52.00
2023-05-19T12:35:30.856Z,51.70
2023-05-19T12:37:58.229Z,52.30
2023-05-19T12:40:26.562Z,52.50
2023-05-19T12:42:59.351Z,51.70
2023-05-19T12:45:28.671Z,51.90
2023-05-19T12:47:56.981Z,50.90
2023-05-19T12:50:31.408Z,51.80
2023-05-19T12:53:00.068Z,51.20
2023-05-19T12:55:27.470Z,51.60
2023-05-19T12:57:58.355Z,52.20
2023-05-19T13:00:28.425Z,52.60
2023-05-19T13:03:03.310Z,54.20
2023-05-19T13:05:31.991Z,53.50
2023-05-19T13:08:00.778Z,52.80
2023-05-19T13:10:28.426Z,52.40
2023-05-19T13:12:55.911Z,52.40
2023-05-19T13:15:24.760Z,52.80
2023-05-19T13:17:52.317Z,53.50
2023-05-19T13:20:20.362Z,53.60
2023-05-19T13:22:48.314Z,54.10
2023-05-19T13:25:15.630Z,54.80
2023-05-19T13:27:44.865Z,54.70
2023-05-19T13:30:12.547Z,54.40
2023-05-19T13:32:39.824Z,54.00
2023-05-19T13:35:07.527Z,53.80
2023-05-19T13:37:36.276Z,54.10
2023-05-19T13:40:03.835Z,53.40
2023-05-19T13:42:32.027Z,53.20
2023-05-19T13:44:59.219Z,54.00
2023-05-19T13:47:26.395Z,54.10
2023-05-19T13:49:53.586Z,54.40
2023-05-19T13:52:21.255Z,54.10
2023-05-19T13:54:48.785Z,54.40
2023-05-19T13:57:16.666Z,54.80
2023-05-19T13:59:57.696Z,55.20
2023-05-19T14:02:30.214Z,54.60
2023-05-19T14:04:57.723Z,54.90
2023-05-19T14:07:25.920Z,55.00
2023-05-19T14:09:55.544Z,54.50
2023-05-19T14:12:25.412Z,54.60
2023-05-19T14:14:58.781Z,55.20
2023-05-19T14:17:27.682Z,55.00
2023-05-19T14:19:55.018Z,54.60
2023-05-19T14:22:22.120Z,54.50
2023-05-19T14:24:49.265Z,54.20
2023-05-19T14:27:16.384Z,55.30
2023-05-19T14:29:43.710Z,55.70
2023-05-19T14:32:10.899Z,55.50
2023-05-19T14:34:37.955Z,55.90
2023-05-19T14:37:06.299Z,55.70
2023-05-19T14:39:33.365Z,56.20
2023-05-19T14:42:00.355Z,55.90
2023-05-19T14:44:33.062Z,56.40
2023-05-19T14:47:02.005Z,56.30
2023-05-19T14:49:29.325Z,56.70
2023-05-19T14:51:56.745Z,56.60
2023-05-19T14:54:23.854Z,56.80
2023-05-19T14:56:51.042Z,57.30
2023-05-19T14:59:18.153Z,56.90
2023-05-19T15:01:45.346Z,57.30
2023-05-19T15:04:12.647Z,57.60
2023-05-19T15:06:39.799Z,57.90
2023-05-19T15:09:07.191Z,57.60
2023-05-19T15:11:34.374Z,57.60
2023-05-19T15:14:01.674Z,57.60
2023-05-19T15:16:28.887Z,58.30
2023-05-19T15:18:56.369Z,58.70
2023-05-19T15:21:23.707Z,59.50
2023-05-19T15:23:50.852Z,59.10
2023-05-19T15:26:17.968Z,59.40
2023-05-19T15:28:45.129Z,60.30
2023-05-19T15:31:12.595Z,61.00
2023-05-19T15:33:39.826Z,60.30
2023-05-19T15:36:07.192Z,60.50
2023-05-19T15:38:37.692Z,60.40
2023-05-19T15:41:08.513Z,60.70
2023-05-19T15:43:35.693Z,60.40
2023-05-19T15:46:05.125Z,59.80
2023-05-19T15:48:32.711Z,60.00
2023-05-19T15:51:00.149Z,60.00
2023-05-19T15:53:27.501Z,60.40
2023-05-19T15:55:54.758Z,60.70
2023-05-19T15:58:24.696Z,60.90
2023-05-19T16:00:52.165Z,61.60
2023-05-19T16:03:20.569Z,61.10
2023-05-19T16:05:50.393Z,61.50
2023-05-19T16:08:23.106Z,61.70
2023-05-19T16:10:58.338Z,61.50
2023-05-19T16:13:42.972Z,61.10
2023-05-19T16:16:10.483Z,61.30
2023-05-19T16:18:37.766Z,61.20
2023-05-19T16:21:05.292Z,61.50
2023-05-19T16:23:32.488Z,61.90
2023-05-19T16:25:59.622Z,62.20
2023-05-19T16:28:28.161Z,62.40
2023-05-19T16:31:01.247Z,62.90
2023-05-19T16:33:28.511Z,62.70
2023-05-19T16:35:56.285Z,63.20
2023-05-19T16:38:23.422Z,63.10
2023-05-19T16:40:50.585Z,63.70
2023-05-19T16:43:17.863Z,63.50
2023-05-19T16:45:45.080Z,63.90
2023-05-19T16:48:12.272Z,63.70
2023-05-19T16:50:40.079Z,63.80
2023-05-19T16:53:07.274Z,63.80
2023-05-19T16:55:34.337Z,63.80
2023-05-19T16:58:01.554Z,63.90
2023-05-19T17:00:29.985Z,64.30
2023-05-19T17:02:57.212Z,64.70
2023-05-19T17:05:24.321Z,65.10
2023-05-19T17:07:51.562Z,65.30
2023-05-19T17:10:18.804Z,65.90
2023-05-19T17:12:46.029Z,66.00
2023-05-19T17:15:13.108Z,66.50
2023-05-19T17:17:42.300Z,66.90
2023-05-19T17:20:09.973Z,67.10
2023-05-19T17:22:37.320Z,67.50
2023-05-19T17:25:04.788Z,67.70
2023-05-19T17:27:32.072Z,67.80
2023-05-19T17:29:59.227Z,67.90
2023-05-19T17:32:28.606Z,68.00
2023-05-19T17:34:56.129Z,68.40
2023-05-19T17:37:25.825Z,68.60
2023-05-19T17:39:53.092Z,68.90
2023-05-19T17:42:20.262Z,69.20
2023-05-19T17:44:47.490Z,69.10
2023-05-19T17:47:14.719Z,69.20
2023-05-19T17:49:41.926Z,69.40
2023-05-19T17:52:09.783Z,69.50
2023-05-19T17:54:37.274Z,69.80
2023-05-19T17:57:04.495Z,70.10
2023-05-19T17:59:31.936Z,70.30
2023-05-19T18:01:59.390Z,70.60
2023-05-19T18:04:26.810Z,70.80
2023-05-19T18:06:54.024Z,71.30
2023-05-19T18:09:21.572Z,71.60
2023-05-19T18:11:48.736Z,71.90
2023-05-19T18:14:15.993Z,72.30
2023-05-19T18:16:43.427Z,72.40
2023-05-19T18:19:11.052Z,72.40
2023-05-19T18:21:38.263Z,72.60
2023-05-19T18:24:06.252Z,73.10
2023-05-19T18:26:33.732Z,73.40
2023-05-19T18:29:04.924Z,73.70
2023-05-19T18:31:32.195Z,73.90
2023-05-19T18:33:59.298Z,73.90
2023-05-19T18:36:26.616Z,74.00
2023-05-19T18:38:55.257Z,73.90
2023-05-19T18:41:22.429Z,74.10
2023-05-19T18:43:49.542Z,74.10
2023-05-19T18:46:19.815Z,74.40
2023-05-19T18:48:47.464Z,74.80
2023-05-19T18:51:16.073Z,75.00
2023-05-19T18:53:43.222Z,75.30
2023-05-19T18:56:11.576Z,75.50
2023-05-19T18:58:38.733Z,75.70
2023-05-19T19:01:06.109Z,75.80
2023-05-19T19:03:33.239Z,76.10
2023-05-19T19:06:00.641Z,76.40
2023-05-19T19:08:27.775Z,76.60
2023-05-19T19:10:59.386Z,76.90
2023-05-19T19:13:27.049Z,77.10
2023-05-19T19:15:54.238Z,77.20
2023-05-19T19:18:21.573Z,77.50
2023-05-19T19:20:48.643Z,77.80
2023-05-19T19:23:16.269Z,78.20
2023-05-19T19:25:43.403Z,78.70
2023-05-19T19:28:10.874Z,79.20
2023-05-19T19:30:38.043Z,79.40
2023-05-19T19:33:06.700Z,79.60
2023-05-19T19:35:34.033Z,79.80
2023-05-19T19:38:01.660Z,79.60
2023-05-19T19:40:29.464Z,79.70
2023-05-19T19:42:56.826Z,79.70
2023-05-19T19:45:24.073Z,79.80
2023-05-19T19:47:51.960Z,79.90
2023-05-19T19:50:19.220Z,80.20
2023-05-19T19:52:46.375Z,80.20
2023-05-19T19:55:13.720Z,80.70
2023-05-19T19:57:40.890Z,80.10
2023-05-19T20:00:09.091Z,80.20
2023-05-19T20:02:45.589Z,80.40
2023-05-19T20:05:22.840Z,80.70
2023-05-19T20:07:49.983Z,80.80
2023-05-19T20:10:17.182Z,81.10
2023-05-19T20:12:44.610Z,81.10
2023-05-19T20:15:11.944Z,81.20
2023-05-19T20:17:39.007Z,81.20
2023-05-19T20:20:11.149Z,81.30
2023-05-19T20:22:38.959Z,81.40
2023-05-19T20:25:07.049Z,81.60
2023-05-19T20:27:34.582Z,82.10
2023-05-19T20:30:01.766Z,81.60
2023-05-19T20:32:28.930Z,81.60
2023-05-19T20:34:56.058Z,81.70
2023-05-19T20:37:23.200Z,81.70
2023-05-19T20:39:50.308Z,81.90
2023-05-19T20:42:17.423Z,82.20
2023-05-19T20:44:44.510Z,82.20
2023-05-19T20:47:11.791Z,82.30
2023-05-19T20:49:39.082Z,82.50
2023-05-19T20:52:06.510Z,82.50
2023-05-19T20:54:33.559Z,82.30
2023-05-19T20:57:01.422Z,82.20
2023-05-19T20:59:28.477Z,82.30
2023-05-19T21:01:55.654Z,82.30
2023-05-19T21:04:22.815Z,82.50
2023-05-19T21:06:50.224Z,82.40
2023-05-19T21:09:17.600Z,82.40
2023-05-19T21:11:45.221Z,82.70
2023-05-19T21:14:12.472Z,82.80
2023-05-19T21:16:39.950Z,83.20
2023-05-19T21:19:07.252Z,82.90
2023-05-19T21:21:34.518Z,82.80
2023-05-19T21:24:01.590Z,82.90
2023-05-19T21:26:28.709Z,82.80
2023-05-19T21:28:56.036Z,82.70
2023-05-19T21:31:23.315Z,82.80
2023-05-19T21:33:50.484Z,82.90
2023-05-19T21:36:18.460Z,83.00
2023-05-19T21:38:45.678Z,83.20
2023-05-19T21:41:13.079Z,83.40
2023-05-19T21:43:41.491Z,83.40
2023-05-19T21:46:08.751Z,83.30
2023-05-19T21:48:35.944Z,83.40
2023-05-19T21:51:04.670Z,83.80
2023-05-19T21:53:33.021Z,84.20
2023-05-19T21:56:00.460Z,84.40
2023-05-19T21:58:27.565Z,84.30
2023-05-19T22:00:56.467Z,84.30
2023-05-19T22:03:23.787Z,84.30
2023-05-19T22:05:51.993Z,84.10
2023-05-19T22:08:19.562Z,84.00
2023-05-19T22:10:52.253Z,83.90
2023-05-19T22:13:20.365Z,83.90
2023-05-19T22:15:47.611Z,84.10
2023-05-19T22:18:14.724Z,84.10
2023-05-19T22:20:42.048Z,84.00
2023-05-19T22:23:12.317Z,84.20
2023-05-19T22:25:39.685Z,84.40
2023-05-19T22:28:08.396Z,84.40
2023-05-19T22:30:41.130Z,84.20
2023-05-19T22:33:11.823Z,84.20
2023-05-19T22:35:39.241Z,84.30
2023-05-19T22:38:07.493Z,84.20
2023-05-19T22:40:36.865Z,84.20
2023-05-19T22:43:04.113Z,84.20
2023-05-19T22:45:31.972Z,84.40
2023-05-19T22:47:59.431Z,84.30
2023-05-19T22:50:26.656Z,84.40
2023-05-19T22:52:53.935Z,84.40
2023-05-19T22:55:21.203Z,85.00
2023-05-19T22:57:48.410Z,84.40
2023-05-19T23:00:21.426Z,84.20
2023-05-19T23:02:48.621Z,84.00
2023-05-19T23:05:15.961Z,83.90
2023-05-19T23:07:43.132Z,84.30
2023-05-19T23:10:10.770Z,84.50
2023-05-19T23:12:40.325Z,84.40
2023-05-19T23:15:08.704Z,84.40
2023-05-19T23:17:36.520Z,84.40
2023-05-19T23:20:04.234Z,84.40
2023-05-19T23:22:31.544Z,84.60
2023-05-19T23:24:58.874Z,84.60
2023-05-19T23:27:26.159Z,84.60
2023-05-19T23:29:53.696Z,84.50
2023-05-19T23:32:20.895Z,84.50
2023-05-19T23:34:48.850Z,84.60
2023-05-19T23:37:16.319Z,84.70
2023-05-19T23:39:43.666Z,84.90
2023-05-19T23:42:10.876Z,85.00
2023-05-19T23:44:38.009Z,85.00
2023-05-19T23:47:05.412Z,85.00
2023-05-19T23:49:32.485Z,84.90
2023-05-19T23:51:59.634Z,84.80
2023-05-19T23:54:26.933Z,85.10
2023-05-19T23:56:55.920Z,84.80
2023-05-19T23:59:23.265Z,84.80
